createdAt,value
2023-02-19T00:00:14.835Z,88.40
2023-02-19T00:02:50.882Z,88.50
2023-02-19T00:05:18.088Z,88.50
2023-02-19T00:07:45.000Z,88.30
2023-02-19T00:10:11.825Z,88.40
2023-02-19T00:12:39.129Z,88.40
2023-02-19T00:15:06.407Z,88.50
2023-02-19T00:17:37.339Z,88.50
2023-02-19T00:20:05.221Z,88.70
2023-02-19T00:22:32.087Z,88.60
2023-02-19T00:24:59.352Z,88.50
2023-02-19T00:27:26.590Z,88.50
2023-02-19T00:29:54.182Z,88.40
2023-02-19T00:32:21.026Z,88.50
2023-02-19T00:34:49.354Z,88.40
2023-02-19T00:37:16.249Z,88.40
2023-02-19T00:39:43.164Z,88.50
2023-02-19T00:42:10.516Z,88.50
2023-02-19T00:44:45.637Z,88.40
2023-02-19T00:47:12.543Z,88.50
2023-02-19T00:49:39.465Z,88.50
2023-02-19T00:52:08.137Z,88.50
2023-02-19T00:54:35.340Z,88.40
2023-02-19T00:57:02.350Z,88.50
2023-02-19T00:59:29.577Z,88.40
2023-02-19T01:01:56.544Z,88.50
2023-02-19T01:04:26.243Z,88.50
2023-02-19T01:06:53.655Z,88.50
2023-02-19T01:09:21.885Z,88.50
2023-02-19T01:11:51.644Z,88.50
2023-02-19T01:14:21.232Z,88.40
2023-02-19T01:16:48.356Z,88.40
2023-02-19T01:19:15.268Z,88.40
2023-02-19T01:21:42.509Z,88.40
2023-02-19T01:24:09.723Z,88.40
2023-02-19T01:26:44.852Z,88.40
2023-02-19T01:29:11.782Z,88.30
2023-02-19T01:31:42.444Z,88.30
2023-02-19T01:34:11.068Z,88.40
2023-02-19T01:36:38.629Z,88.40
2023-02-19T01:39:07.300Z,88.30
2023-02-19T01:41:39.518Z,88.30
2023-02-19T01:44:49.645Z,88.40
2023-02-19T01:47:19.768Z,88.40
2023-02-19T01:49:50.071Z,88.50
2023-02-19T01:52:21.534Z,88.50
2023-02-19T01:54:50.035Z,88.30
2023-02-19T01:57:21.227Z,88.50
2023-02-19T01:59:53.324Z,88.40
2023-02-19T02:02:22.149Z,88.50
2023-02-19T02:04:49.066Z,88.50
2023-02-19T02:07:35.714Z,88.50
2023-02-19T02:10:20.974Z,88.50
2023-02-19T02:13:17.240Z,88.50
2023-02-19T02:15:59.739Z,88.50
2023-02-19T02:19:41.729Z,88.40
2023-02-19T02:22:29.131Z,88.40
2023-02-19T02:25:38.484Z,88.30
2023-02-19T02:28:22.603Z,88.30
2023-02-19T02:30:53.114Z,88.40
2023-02-19T02:33:28.971Z,88.40
2023-02-19T02:35:59.318Z,88.40
2023-02-19T02:38:31.234Z,88.40
2023-02-19T02:41:01.534Z,88.50
2023-02-19T02:43:28.515Z,88.40
2023-02-19T02:45:56.909Z,88.40
2023-02-19T02:48:28.799Z,88.50
2023-02-19T02:51:00.109Z,88.40
2023-02-19T02:53:51.730Z,88.50
2023-02-19T02:56:19.918Z,88.50
2023-02-19T02:58:49.548Z,88.50
2023-02-19T03:01:44.586Z,88.40
2023-02-19T03:04:15.850Z,88.30
2023-02-19T03:06:47.695Z,88.30
2023-02-19T03:09:18.958Z,88.40
2023-02-19T03:12:29.008Z,88.30
2023-02-19T03:15:28.896Z,88.20
2023-02-19T03:18:22.177Z,88.20
2023-02-19T03:20:52.813Z,88.30
2023-02-19T03:23:21.961Z,88.30
2023-02-19T03:26:04.337Z,88.20
2023-02-19T03:28:53.849Z,88.30
2023-02-19T03:31:26.567Z,88.20
2023-02-19T03:34:27.049Z,88.20
2023-02-19T03:37:04.423Z,88.20
2023-02-19T03:39:32.021Z,88.30
2023-02-19T03:42:05.019Z,88.30
2023-02-19T03:44:41.039Z,88.30
2023-02-19T03:47:19.602Z,88.30
2023-02-19T03:49:53.772Z,88.30
2023-02-19T03:52:28.575Z,88.40
2023-02-19T03:55:02.016Z,88.30
2023-02-19T03:57:38.104Z,88.20
2023-02-19T04:00:12.323Z,88.30
2023-02-19T04:02:41.597Z,88.30
2023-02-19T04:05:14.385Z,88.40
2023-02-19T04:07:46.514Z,88.30
2023-02-19T04:10:15.704Z,88.30
2023-02-19T04:12:48.384Z,88.30
2023-02-19T04:15:22.108Z,88.40
2023-02-19T04:17:54.645Z,88.40
2023-02-19T04:20:24.759Z,88.30
2023-02-19T04:22:54.887Z,88.40
2023-02-19T04:25:28.905Z,88.40
2023-02-19T04:27:56.012Z,88.40
2023-02-19T04:30:23.248Z,88.40
2023-02-19T04:32:50.188Z,88.30
2023-02-19T04:35:17.339Z,88.40
2023-02-19T04:37:45.813Z,88.40
2023-02-19T04:40:12.840Z,88.40
2023-02-19T04:42:39.987Z,88.30
2023-02-19T04:45:07.780Z,88.30
2023-02-19T04:47:37.440Z,88.40
2023-02-19T04:50:05.500Z,88.40
2023-02-19T04:52:33.718Z,88.30
2023-02-19T04:55:02.106Z,88.40
2023-02-19T04:57:28.967Z,88.50
2023-02-19T04:59:55.897Z,88.40
2023-02-19T05:02:23.048Z,88.50
2023-02-19T05:04:49.958Z,88.50
2023-02-19T05:07:21.337Z,88.50
2023-02-19T05:09:48.470Z,88.50
2023-02-19T05:12:16.695Z,88.60
2023-02-19T05:14:43.549Z,88.60
2023-02-19T05:17:10.562Z,88.50
2023-02-19T05:19:37.453Z,88.50
2023-02-19T05:22:04.346Z,88.50
2023-02-19T05:24:31.800Z,88.50
2023-02-19T05:26:58.752Z,88.50
2023-02-19T05:29:27.322Z,88.50
2023-02-19T05:31:54.577Z,88.50
2023-02-19T05:34:21.466Z,88.50
2023-02-19T05:36:48.489Z,88.50
2023-02-19T05:39:15.388Z,88.50
2023-02-19T05:41:42.725Z,88.50
2023-02-19T05:44:17.253Z,88.40
2023-02-19T05:46:45.936Z,88.40
2023-02-19T05:49:13.187Z,88.40
2023-02-19T05:51:40.157Z,88.40
2023-02-19T05:54:09.715Z,88.40
2023-02-19T05:56:38.535Z,88.40
2023-02-19T05:59:09.017Z,88.40
2023-02-19T06:01:36.547Z,88.30
2023-02-19T06:04:05.421Z,88.30
2023-02-19T06:06:35.151Z,88.30
2023-02-19T06:09:02.205Z,88.30
2023-02-19T06:11:29.969Z,88.30
2023-02-19T06:13:57.388Z,88.30
2023-02-19T06:16:24.417Z,88.30
2023-02-19T06:18:51.700Z,88.30
2023-02-19T06:21:20.500Z,88.30
2023-02-19T06:23:47.867Z,88.30
2023-02-19T06:26:18.012Z,88.30
2023-02-19T06:28:46.346Z,88.30
2023-02-19T06:31:14.159Z,88.30
2023-02-19T06:33:42.269Z,88.30
2023-02-19T06:36:12.733Z,88.30
2023-02-19T06:38:41.423Z,88.30
2023-02-19T06:41:11.438Z,88.40
2023-02-19T06:43:38.486Z,88.30
2023-02-19T06:46:06.988Z,88.40
2023-02-19T06:48:35.540Z,88.50
2023-02-19T06:51:03.187Z,88.40
2023-02-19T06:53:30.356Z,88.40
2023-02-19T06:56:00.541Z,88.40
2023-02-19T06:58:28.468Z,88.50
2023-02-19T07:00:55.550Z,88.50
2023-02-19T07:03:22.953Z,88.50
2023-02-19T07:05:49.906Z,88.50
2023-02-19T07:08:19.599Z,88.50
2023-02-19T07:10:54.427Z,88.50
2023-02-19T07:13:24.906Z,88.50
2023-02-19T07:15:52.280Z,88.50
2023-02-19T07:18:19.454Z,88.50
2023-02-19T07:20:46.361Z,88.50
2023-02-19T07:23:13.428Z,88.50
2023-02-19T07:25:40.868Z,88.50
2023-02-19T07:28:08.016Z,88.50
2023-02-19T07:30:36.266Z,88.60
2023-02-19T07:33:03.178Z,88.60
2023-02-19T07:35:30.296Z,88.60
2023-02-19T07:37:57.293Z,88.60
2023-02-19T07:40:24.299Z,88.50
2023-02-19T07:42:51.181Z,88.50
2023-02-19T07:45:18.871Z,88.50
2023-02-19T07:47:47.198Z,88.50
2023-02-19T07:50:14.551Z,88.40
2023-02-19T07:52:41.452Z,88.50
2023-02-19T07:55:08.852Z,88.50
2023-02-19T07:57:35.732Z,88.40
2023-02-19T08:00:03.641Z,88.60
2023-02-19T08:02:49.434Z,88.70
2023-02-19T08:05:17.886Z,88.70
2023-02-19T08:07:45.291Z,88.60
2023-02-19T08:10:30.664Z,88.70
2023-02-19T08:13:17.935Z,88.70
2023-02-19T08:15:45.818Z,88.70
2023-02-19T08:18:16.310Z,88.80
2023-02-19T08:20:45.415Z,88.80
2023-02-19T08:23:12.883Z,88.70
2023-02-19T08:25:41.404Z,88.70
2023-02-19T08:28:09.962Z,88.70
2023-02-19T08:30:38.952Z,88.70
2023-02-19T08:33:07.774Z,88.80
2023-02-19T08:35:36.506Z,88.80
2023-02-19T08:38:06.579Z,88.80
2023-02-19T08:40:36.921Z,88.70
2023-02-19T08:43:04.724Z,88.70
2023-02-19T08:45:31.786Z,88.70
2023-02-19T08:47:59.958Z,88.70
2023-02-19T08:50:28.750Z,88.80
2023-02-19T08:52:55.712Z,88.80
2023-02-19T08:55:24.494Z,88.70
2023-02-19T08:57:52.150Z,88.70
2023-02-19T09:00:19.599Z,88.70
2023-02-19T09:02:46.678Z,88.80
2023-02-19T09:05:13.664Z,88.80
2023-02-19T09:07:41.706Z,88.80
2023-02-19T09:10:09.920Z,88.80
2023-02-19T09:12:38.376Z,88.70
2023-02-19T09:15:06.466Z,88.70
2023-02-19T09:17:33.323Z,88.70
2023-02-19T09:20:00.674Z,88.70
2023-02-19T09:22:27.586Z,88.80
2023-02-19T09:24:54.746Z,88.80
2023-02-19T09:27:21.952Z,88.70
2023-02-19T09:29:54.926Z,88.60
2023-02-19T09:32:21.994Z,88.50
2023-02-19T09:34:49.919Z,88.60
2023-02-19T09:37:16.866Z,88.60
2023-02-19T09:39:43.967Z,88.60
2023-02-19T09:42:15.679Z,88.60
2023-02-19T09:44:48.163Z,88.60
2023-02-19T09:47:19.485Z,88.50
2023-02-19T09:49:52.084Z,88.70
2023-02-19T09:52:28.300Z,88.70
2023-02-19T09:55:01.182Z,88.70
2023-02-19T09:57:32.383Z,88.60
2023-02-19T10:00:06.062Z,88.50
2023-02-19T10:02:34.539Z,88.40
2023-02-19T10:05:02.917Z,88.30
2023-02-19T10:07:38.536Z,88.40
2023-02-19T10:10:24.326Z,88.30
2023-02-19T10:12:55.815Z,88.30
2023-02-19T10:15:29.438Z,88.30
2023-02-19T10:17:58.215Z,88.20
2023-02-19T10:20:28.027Z,88.10
2023-02-19T10:23:00.345Z,88.10
2023-02-19T10:25:27.708Z,88.10
2023-02-19T10:27:54.762Z,88.10
2023-02-19T10:30:24.988Z,88.20
2023-02-19T10:33:08.501Z,88.10
2023-02-19T10:35:37.343Z,88.00
2023-02-19T10:38:08.508Z,87.90
2023-02-19T10:40:35.397Z,88.00
2023-02-19T10:43:04.533Z,87.80
2023-02-19T10:45:38.939Z,87.90
2023-02-19T10:48:24.632Z,87.90
2023-02-19T10:50:57.313Z,87.80
2023-02-19T10:53:35.191Z,87.80
2023-02-19T10:56:07.809Z,88.00
2023-02-19T10:58:40.682Z,88.00
2023-02-19T11:01:18.666Z,87.80
2023-02-19T11:03:49.978Z,87.50
2023-02-19T11:06:20.608Z,87.00
2023-02-19T11:08:52.292Z,86.80
2023-02-19T11:11:37.932Z,86.70
2023-02-19T11:14:15.390Z,86.40
2023-02-19T11:16:45.131Z,86.60
2023-02-19T11:19:33.592Z,86.60
2023-02-19T11:22:02.132Z,86.60
2023-02-19T11:24:33.912Z,86.60
2023-02-19T11:27:03.720Z,86.50
2023-02-19T11:29:37.554Z,86.70
2023-02-19T11:32:29.810Z,86.70
2023-02-19T11:35:24.210Z,86.90
2023-02-19T11:37:56.903Z,86.80
2023-02-19T11:40:35.717Z,86.80
2023-02-19T11:43:08.799Z,86.70
2023-02-19T11:45:42.450Z,86.70
2023-02-19T11:48:24.899Z,86.80
2023-02-19T11:51:17.106Z,86.70
2023-02-19T11:53:49.832Z,86.70
2023-02-19T11:56:24.090Z,86.80
2023-02-19T11:59:00.746Z,86.90
2023-02-19T12:01:49.976Z,86.90
2023-02-19T12:04:58.565Z,86.90
2023-02-19T12:07:59.199Z,87.00
2023-02-19T12:10:32.438Z,86.90
2023-02-19T12:13:07.829Z,86.90
2023-02-19T12:15:59.965Z,86.90
2023-02-19T12:18:57.550Z,86.90
2023-02-19T12:21:40.158Z,86.90
2023-02-19T12:24:33.066Z,86.80
2023-02-19T12:27:12.530Z,87.00
2023-02-19T12:29:56.242Z,87.20
2023-02-19T12:32:58.715Z,87.20
2023-02-19T12:36:00.497Z,87.20
2023-02-19T12:38:35.400Z,87.30
2023-02-19T12:41:33.131Z,87.30
2023-02-19T12:44:04.349Z,87.30
2023-02-19T12:46:37.304Z,87.50
2023-02-19T12:49:13.965Z,87.50
2023-02-19T12:51:46.695Z,87.50
2023-02-19T12:54:19.720Z,87.40
2023-02-19T12:56:54.455Z,87.30
2023-02-19T12:59:26.599Z,87.20
2023-02-19T13:02:00.011Z,87.20
2023-02-19T13:04:36.296Z,87.10
2023-02-19T13:07:09.028Z,87.20
2023-02-19T13:09:41.331Z,87.30
2023-02-19T13:12:14.829Z,87.20
2023-02-19T13:14:46.480Z,87.20
2023-02-19T13:17:24.015Z,87.20
2023-02-19T13:19:56.599Z,87.20
2023-02-19T13:22:50.746Z,87.20
2023-02-19T13:25:19.512Z,87.10
2023-02-19T13:28:03.014Z,87.00
2023-02-19T13:30:57.099Z,87.00
2023-02-19T13:33:37.294Z,87.00
2023-02-19T13:36:14.664Z,87.00
2023-02-19T13:38:45.076Z,87.10
2023-02-19T13:41:27.500Z,87.10
2023-02-19T13:44:04.536Z,87.10
2023-02-19T13:46:38.480Z,87.10
2023-02-19T13:49:43.654Z,87.20
2023-02-19T13:52:42.257Z,87.20
2023-02-19T13:55:52.358Z,87.30
2023-02-19T13:58:53.815Z,87.30
2023-02-19T14:02:02.890Z,87.30
2023-02-19T14:04:52.657Z,87.30
2023-02-19T14:08:02.028Z,87.30
2023-02-19T14:11:02.630Z,87.40
2023-02-19T14:14:11.327Z,87.40
2023-02-19T14:17:04.930Z,87.40
2023-02-19T14:19:51.184Z,87.40
2023-02-19T14:23:03.700Z,87.50
2023-02-19T14:25:39.145Z,87.40
2023-02-19T14:28:25.460Z,87.40
2023-02-19T14:30:54.389Z,87.40
2023-02-19T14:33:28.290Z,87.50
2023-02-19T14:35:59.437Z,87.40
2023-02-19T14:38:28.275Z,87.40
2023-02-19T14:40:56.737Z,87.50
2023-02-19T14:43:25.917Z,87.40
2023-02-19T14:45:58.123Z,87.40
2023-02-19T14:48:31.123Z,87.40
2023-02-19T14:51:19.232Z,87.40
2023-02-19T14:53:46.817Z,87.40
2023-02-19T14:56:28.794Z,87.40
2023-02-19T14:59:21.393Z,87.30
2023-02-19T15:01:58.522Z,87.30
2023-02-19T15:04:29.884Z,87.20
2023-02-19T15:07:02.976Z,87.20
2023-02-19T15:09:36.469Z,87.20
2023-02-19T15:12:04.120Z,87.10
2023-02-19T15:14:33.248Z,87.10
2023-02-19T15:17:02.739Z,87.10
2023-02-19T15:19:36.570Z,87.20
2023-02-19T15:22:04.694Z,87.10
2023-02-19T15:24:32.005Z,87.20
2023-02-19T15:26:59.120Z,87.10
2023-02-19T15:29:27.512Z,87.10
2023-02-19T15:31:56.375Z,87.10
2023-02-19T15:34:25.611Z,87.10
2023-02-19T15:37:00.936Z,87.10
2023-02-19T15:39:34.247Z,87.10
2023-02-19T15:42:03.601Z,87.10
2023-02-19T15:44:42.224Z,87.10
2023-02-19T15:47:22.597Z,87.00
2023-02-19T15:49:57.085Z,87.00
2023-02-19T15:52:33.650Z,87.00
2023-02-19T15:55:13.463Z,87.00
2023-02-19T15:57:46.420Z,87.00
2023-02-19T16:00:19.818Z,87.00
2023-02-19T16:02:47.070Z,87.00
2023-02-19T16:05:22.963Z,87.00
2023-02-19T16:08:16.542Z,87.00
2023-02-19T16:10:55.126Z,86.90
2023-02-19T16:13:25.035Z,86.90
2023-02-19T16:16:15.317Z,86.90
2023-02-19T16:18:45.524Z,87.00
2023-02-19T16:21:15.834Z,87.00
2023-02-19T16:23:46.960Z,87.00
2023-02-19T16:26:16.812Z,87.00
2023-02-19T16:28:47.176Z,86.90
2023-02-19T16:31:14.771Z,86.90
2023-02-19T16:33:43.179Z,86.90
2023-02-19T16:36:17.829Z,86.80
2023-02-19T16:39:03.515Z,86.60
2023-02-19T16:41:30.837Z,86.70
2023-02-19T16:44:06.454Z,86.60
2023-02-19T16:46:33.675Z,86.60
2023-02-19T16:49:02.007Z,86.50
2023-02-19T16:51:28.991Z,86.40
2023-02-19T16:53:55.944Z,86.40
2023-02-19T16:56:25.306Z,86.60
2023-02-19T16:58:52.703Z,86.40
2023-02-19T17:01:19.724Z,86.30
2023-02-19T17:03:47.769Z,86.30
2023-02-19T17:06:15.576Z,86.30
2023-02-19T17:08:43.597Z,86.30
2023-02-19T17:11:12.695Z,86.20
2023-02-19T17:13:45.832Z,86.10
2023-02-19T17:16:18.292Z,86.00
2023-02-19T17:18:49.130Z,86.00
2023-02-19T17:21:18.063Z,86.00
2023-02-19T17:23:48.604Z,86.10
2023-02-19T17:26:16.660Z,85.90
2023-02-19T17:28:45.229Z,85.90
2023-02-19T17:31:14.528Z,85.80
2023-02-19T17:33:54.803Z,85.90
2023-02-19T17:36:24.162Z,85.90
2023-02-19T17:38:51.418Z,85.90
2023-02-19T17:41:18.799Z,85.90
2023-02-19T17:43:47.561Z,86.00
2023-02-19T17:46:15.599Z,85.90
2023-02-19T17:48:45.495Z,85.90
2023-02-19T17:51:13.913Z,85.90
2023-02-19T17:53:42.045Z,86.00
2023-02-19T17:56:09.178Z,86.00
2023-02-19T17:58:36.239Z,86.00
2023-02-19T18:01:04.997Z,86.00
2023-02-19T18:03:32.207Z,86.00
2023-02-19T18:05:59.149Z,86.00
2023-02-19T18:08:26.457Z,86.00
2023-02-19T18:10:53.761Z,86.00
2023-02-19T18:13:20.662Z,86.10
2023-02-19T18:15:53.612Z,86.10
2023-02-19T18:18:23.333Z,86.10
2023-02-19T18:20:50.658Z,86.10
2023-02-19T18:23:17.601Z,86.20
2023-02-19T18:25:47.757Z,86.20
2023-02-19T18:28:15.285Z,86.20
2023-02-19T18:30:42.433Z,86.20
2023-02-19T18:33:13.791Z,86.30
2023-02-19T18:35:42.044Z,86.30
2023-02-19T18:38:09.183Z,86.30
2023-02-19T18:40:36.111Z,86.20
2023-02-19T18:43:05.801Z,86.30
2023-02-19T18:45:36.035Z,86.30
2023-02-19T18:48:04.474Z,86.20
2023-02-19T18:50:31.528Z,86.30
2023-02-19T18:52:59.793Z,86.30
2023-02-19T18:55:26.782Z,86.40
2023-02-19T18:57:53.612Z,86.40
2023-02-19T19:00:25.428Z,86.40
2023-02-19T19:02:56.298Z,86.40
2023-02-19T19:05:23.469Z,86.40
2023-02-19T19:07:51.506Z,86.40
2023-02-19T19:10:21.177Z,86.40
2023-02-19T19:12:48.291Z,86.40
2023-02-19T19:15:18.189Z,86.40
2023-02-19T19:17:45.806Z,86.50
2023-02-19T19:20:13.949Z,86.50
2023-02-19T19:22:41.255Z,86.50
2023-02-19T19:25:09.026Z,86.50
2023-02-19T19:27:37.413Z,86.50
2023-02-19T19:30:05.604Z,86.50
2023-02-19T19:32:32.616Z,86.60
2023-02-19T19:34:59.853Z,86.60
2023-02-19T19:37:28.859Z,86.60
2023-02-19T19:39:59.833Z,86.70
2023-02-19T19:42:26.658Z,86.60
2023-02-19T19:44:55.897Z,86.70
2023-02-19T19:47:23.217Z,86.70
2023-02-19T19:49:50.354Z,86.60
2023-02-19T19:52:18.169Z,86.70
2023-02-19T19:54:45.280Z,86.70
2023-02-19T19:57:13.238Z,86.70
2023-02-19T19:59:40.186Z,86.70
2023-02-19T20:02:12.092Z,86.70
2023-02-19T20:04:39.049Z,86.60
2023-02-19T20:07:06.326Z,86.60
2023-02-19T20:09:33.201Z,86.60
2023-02-19T20:12:00.537Z,86.60
2023-02-19T20:14:27.464Z,86.60
2023-02-19T20:17:03.100Z,86.70
2023-02-19T20:19:31.946Z,86.70
2023-02-19T20:21:59.119Z,86.80
2023-02-19T20:24:28.835Z,86.80
2023-02-19T20:27:02.189Z,86.80
2023-02-19T20:29:31.378Z,86.80
2023-02-19T20:32:03.632Z,86.80
2023-02-19T20:34:34.589Z,86.80
2023-02-19T20:37:03.989Z,86.80
2023-02-19T20:39:31.861Z,86.80
2023-02-19T20:41:59.681Z,86.80
2023-02-19T20:44:28.675Z,86.90
2023-02-19T20:46:57.435Z,87.00
2023-02-19T20:49:27.316Z,87.00
2023-02-19T20:52:00.056Z,87.00
2023-02-19T20:54:28.793Z,87.00
2023-02-19T20:56:57.783Z,87.00
2023-02-19T20:59:30.778Z,87.00
2023-02-19T21:01:58.471Z,87.00
2023-02-19T21:04:25.950Z,87.10
2023-02-19T21:06:52.857Z,87.10
2023-02-19T21:09:22.334Z,87.10
2023-02-19T21:11:49.464Z,87.00
2023-02-19T21:14:17.243Z,87.10
2023-02-19T21:16:44.658Z,87.00
2023-02-19T21:19:11.619Z,87.10
2023-02-19T21:21:40.675Z,87.10
2023-02-19T21:24:11.207Z,87.20
2023-02-19T21:26:41.245Z,87.20
2023-02-19T21:29:12.452Z,87.10
2023-02-19T21:31:41.365Z,87.20
2023-02-19T21:34:10.696Z,87.30
2023-02-19T21:36:37.844Z,87.30
2023-02-19T21:39:06.533Z,87.30
2023-02-19T21:41:33.441Z,87.40
2023-02-19T21:44:01.947Z,87.30
2023-02-19T21:46:28.995Z,87.30
2023-02-19T21:48:57.081Z,87.40
2023-02-19T21:51:33.531Z,87.40
2023-02-19T21:54:02.067Z,87.30
2023-02-19T21:56:30.630Z,87.20
2023-02-19T21:58:58.228Z,87.30
2023-02-19T22:01:28.336Z,87.40
2023-02-19T22:03:55.348Z,87.40
2023-02-19T22:06:26.923Z,87.40
2023-02-19T22:08:55.202Z,87.40
2023-02-19T22:11:22.042Z,87.50
2023-02-19T22:13:49.732Z,87.30
2023-02-19T22:16:17.383Z,87.40
2023-02-19T22:18:49.517Z,87.40
2023-02-19T22:21:16.882Z,87.40
2023-02-19T22:23:45.475Z,87.50
2023-02-19T22:26:18.833Z,87.30
2023-02-19T22:28:47.645Z,87.50
2023-02-19T22:31:15.468Z,87.60
2023-02-19T22:33:44.154Z,87.50
2023-02-19T22:36:17.399Z,87.40
2023-02-19T22:38:44.728Z,87.50
2023-02-19T22:41:11.822Z,87.60
2023-02-19T22:43:39.126Z,87.60
2023-02-19T22:46:12.503Z,87.50
2023-02-19T22:48:39.852Z,87.50
2023-02-19T22:51:12.857Z,87.50
2023-02-19T22:53:45.651Z,87.50
2023-02-19T22:56:13.289Z,87.50
2023-02-19T22:58:40.978Z,87.60
2023-02-19T23:01:08.705Z,87.70
2023-02-19T23:03:44.518Z,87.60
2023-02-19T23:06:12.049Z,87.70
2023-02-19T23:08:39.754Z,87.60
2023-02-19T23:11:08.847Z,87.70
2023-02-19T23:13:35.784Z,87.70
2023-02-19T23:16:04.677Z,87.80
2023-02-19T23:18:31.522Z,87.60
2023-02-19T23:21:02.241Z,87.60
2023-02-19T23:23:29.923Z,87.80
2023-02-19T23:25:56.812Z,87.70
2023-02-19T23:28:25.067Z,87.70
2023-02-19T23:30:52.155Z,87.80
2023-02-19T23:33:19.252Z,87.80
2023-02-19T23:35:46.116Z,87.70
2023-02-19T23:38:12.995Z,87.70
2023-02-19T23:40:40.173Z,87.70
2023-02-19T23:43:07.006Z,87.70
2023-02-19T23:45:38.335Z,87.70
2023-02-19T23:48:05.794Z,87.60
2023-02-19T23:50:32.668Z,87.70
2023-02-19T23:53:00.226Z,87.60
2023-02-19T23:55:27.073Z,87.60
2023-02-19T23:57:54.304Z,87.60
